Time;durP1;ratioP1;P1;durP2;ratioP2;P2;SDS_P1;SDS_P2;PMS_P1;PMS_P2;Temp;Humidity;BMP_temperature;BMP_pressure;BME280_temperature;BME280_humidity;BME280_pressure;Samples;Min_cycle;Max_cycle;Signal;HPM_P1;HPM_P2
2022/03/16 00:02:26;;;;;;;31.30;29.60;;;22.10;44.10;;;;;;5094448;28;20956;-48
2022/03/16 00:04:54;;;;;;;30.33;28.70;;;22.10;44.00;;;;;;5094451;28;20445;-49
2022/03/16 00:07:23;;;;;;;31.77;29.97;;;22.20;44.00;;;;;;5094192;28;20858;-52
2022/03/16 00:09:50;;;;;;;30.70;29.10;;;22.20;43.90;;;;;;5093577;28;20441;-51
2022/03/16 00:12:17;;;;;;;31.17;29.50;;;22.10;43.90;;;;;;5094183;28;20470;-48
2022/03/16 00:14:45;;;;;;;30.23;28.60;;;22.10;44.00;;;;;;5094151;28;20943;-49
2022/03/16 00:17:12;;;;;;;29.87;28.17;;;22.10;44.10;;;;;;5094064;28;20806;-47
2022/03/16 00:19:40;;;;;;;31.20;29.60;;;22.10;44.10;;;;;;5093994;28;21066;-47
2022/03/16 00:22:08;;;;;;;30.40;28.80;;;22.10;44.10;;;;;;5093739;28;20466;-47
2022/03/16 00:24:36;;;;;;;30.37;28.87;;;22.10;44.20;;;;;;5093937;28;20446;-47
2022/03/16 00:27:03;;;;;;;29.10;27.70;;;22.10;44.00;;;;;;5093933;28;20454;-47
2022/03/16 00:29:30;;;;;;;30.60;29.17;;;22.10;44.10;;;;;;5093649;28;20438;-47
2022/03/16 00:31:58;;;;;;;29.10;27.67;;;22.10;44.10;;;;;;5093977;28;20459;-48
2022/03/16 00:34:25;;;;;;;30.70;29.20;;;22.10;44.10;;;;;;5093591;28;20447;-47
2022/03/16 00:36:52;;;;;;;29.00;27.50;;;22.10;44.00;;;;;;5093765;28;20450;-47
2022/03/16 00:39:19;;;;;;;29.37;27.77;;;22.10;44.00;;;;;;5093449;28;20481;-48
2022/03/16 00:41:47;;;;;;;30.30;28.70;;;22.20;44.00;;;;;;5093681;28;20462;-47
2022/03/16 00:44:14;;;;;;;29.23;27.80;;;22.30;43.80;;;;;;5093676;28;20451;-48
2022/03/16 00:46:41;;;;;;;28.83;27.37;;;22.30;43.70;;;;;;5093418;28;20439;-47
2022/03/16 00:49:07;;;;;;;30.23;28.57;;;22.30;43.60;;;;;;5093360;28;20815;-47
2022/03/16 00:51:34;;;;;;;28.87;27.40;;;22.30;43.60;;;;;;5093314;28;20492;-47
2022/03/16 00:54:01;;;;;;;28.57;27.27;;;22.30;43.60;;;;;;5093448;28;20820;-48
2022/03/16 00:56:28;;;;;;;29.83;28.37;;;22.10;43.60;;;;;;5093412;28;20951;-47
2022/03/16 00:58:56;;;;;;;27.53;26.33;;;22.10;43.60;;;;;;5092747;28;20461;-47
2022/03/16 01:01:23;;;;;;;29.20;27.70;;;22.10;43.70;;;;;;5093145;28;20482;-47
2022/03/16 01:03:49;;;;;;;30.00;28.50;;;22.00;43.80;;;;;;5093322;28;20465;-48
2022/03/16 01:06:16;;;;;;;30.37;28.87;;;22.00;43.90;;;;;;5092918;28;20439;-47
2022/03/16 01:08:43;;;;;;;29.50;28.00;;;22.00;44.00;;;;;;5092849;28;20925;-47
2022/03/16 01:11:10;;;;;;;29.03;27.53;;;22.00;44.00;;;;;;5092968;28;20463;-47
2022/03/16 01:13:37;;;;;;;28.00;26.60;;;22.00;44.10;;;;;;5092983;28;20438;-47
2022/03/16 01:16:05;;;;;;;28.20;26.70;;;22.00;44.00;;;;;;5092784;28;20438;-47
2022/03/16 01:18:32;;;;;;;28.30;26.90;;;22.10;44.00;;;;;;5088690;28;20450;-48
2022/03/16 01:20:59;;;;;;;30.13;28.53;;;22.10;43.80;;;;;;5091921;28;20478;-47
2022/03/16 01:23:26;;;;;;;29.00;27.70;;;22.10;43.70;;;;;;5092755;28;20457;-49
2022/03/16 01:25:52;;;;;;;27.50;26.30;;;22.20;43.60;;;;;;5092797;28;20450;-47
2022/03/16 01:28:19;;;;;;;27.50;26.20;;;22.20;43.40;;;;;;5092286;28;20949;-47
2022/03/16 01:30:46;;;;;;;28.33;26.87;;;22.20;43.40;;;;;;5092663;28;20459;-48
2022/03/16 01:33:14;;;;;;;29.50;28.07;;;22.20;43.30;;;;;;5092638;28;20442;-47
2022/03/16 01:35:41;;;;;;;27.97;26.67;;;22.20;43.40;;;;;;5092605;28;20438;-47
2022/03/16 01:38:08;;;;;;;26.13;25.03;;;22.10;43.40;;;;;;5092364;28;20461;-47
2022/03/16 01:40:34;;;;;;;28.40;27.10;;;22.10;43.50;;;;;;5092082;28;20482;-48
2022/03/16 01:43:01;;;;;;;27.43;26.13;;;22.00;43.50;;;;;;5092420;28;20450;-47
2022/03/16 01:45:28;;;;;;;27.77;26.43;;;21.90;43.70;;;;;;5092491;28;20446;-47
2022/03/16 01:47:55;;;;;;;27.63;26.33;;;21.90;43.80;;;;;;5092324;28;20457;-47
2022/03/16 01:50:23;;;;;;;27.93;26.53;;;21.90;43.80;;;;;;5092293;28;20482;-47
2022/03/16 01:52:50;;;;;;;28.10;26.80;;;22.00;43.90;;;;;;5092094;28;20446;-48
2022/03/16 01:55:17;;;;;;;27.90;26.60;;;22.00;43.70;;;;;;5092215;28;20454;-48
2022/03/16 01:57:47;;;;;;;27.50;26.20;;;22.10;43.60;;;;;;5092080;28;20801;-47
2022/03/16 02:00:15;;;;;;;26.70;25.50;;;22.10;43.50;;;;;;5091755;28;20509;-47
2022/03/16 02:02:42;;;;;;;27.43;26.20;;;22.10;43.40;;;;;;5092175;28;20809;-47
2022/03/16 02:05:09;;;;;;;26.47;25.17;;;22.10;43.40;;;;;;5091853;28;20446;-47
2022/03/16 02:07:38;;;;;;;27.57;26.27;;;22.10;43.40;;;;;;5091588;28;20454;-47
2022/03/16 02:10:06;;;;;;;27.33;26.17;;;22.10;43.30;;;;;;5091992;28;20468;-47
2022/03/16 02:12:43;;;;;;;27.00;25.90;;;22.10;43.30;;;;;;5091965;28;20451;-48
2022/03/16 02:15:10;;;;;;;27.40;26.10;;;22.00;43.30;;;;;;5092101;28;20453;-48
2022/03/16 02:17:37;;;;;;;26.63;25.43;;;22.00;43.50;;;;;;5091427;28;20450;-47
2022/03/16 02:20:05;;;;;;;25.77;24.53;;;21.90;43.50;;;;;;5091689;28;20482;-47
2022/03/16 02:22:35;;;;;;;26.37;25.17;;;21.90;43.70;;;;;;5091742;28;20521;-47
2022/03/16 02:25:05;;;;;;;25.80;24.60;;;21.90;43.70;;;;;;5091796;28;20775;-47
2022/03/16 02:27:31;;;;;;;25.90;24.70;;;21.90;43.70;;;;;;5091453;28;20999;-47
2022/03/16 02:29:58;;;;;;;27.13;25.87;;;21.90;43.70;;;;;;5091652;28;20443;-47
2022/03/16 02:32:25;;;;;;;27.57;26.37;;;22.00;43.60;;;;;;5091454;28;21012;-47
2022/03/16 02:34:52;;;;;;;25.80;24.70;;;22.00;43.50;;;;;;5091622;28;20449;-47
2022/03/16 02:37:19;;;;;;;27.47;26.27;;;22.00;43.50;;;;;;5091258;28;20443;-47
2022/03/16 02:39:47;;;;;;;26.80;25.60;;;22.10;43.40;;;;;;5091695;28;20474;-47
2022/03/16 02:42:15;;;;;;;27.43;26.30;;;22.10;43.20;;;;;;5091564;28;20548;-48
2022/03/16 02:44:42;;;;;;;25.87;24.77;;;22.10;43.20;;;;;;5091592;28;21017;-47
2022/03/16 02:47:09;;;;;;;26.57;25.47;;;22.10;43.10;;;;;;5091709;28;20803;-47
2022/03/16 02:49:36;;;;;;;25.83;24.73;;;22.10;43.10;;;;;;5091175;28;20438;-47
2022/03/16 02:52:07;;;;;;;26.07;24.87;;;22.00;43.20;;;;;;5091470;28;20467;-48
2022/03/16 02:54:34;;;;;;;26.37;25.20;;;22.00;43.40;;;;;;5091596;28;20937;-47
2022/03/16 02:57:01;;;;;;;26.40;25.20;;;22.00;43.40;;;;;;5091416;28;20451;-48
2022/03/16 02:59:30;;;;;;;25.97;24.87;;;22.00;43.40;;;;;;5091235;28;20446;-47
2022/03/16 03:01:56;;;;;;;26.80;25.60;;;22.00;43.40;;;;;;5115775;22;20514;-48
2022/03/16 03:04:23;;;;;;;26.17;25.07;;;22.10;43.30;;;;;;5091336;28;20438;-44
2022/03/16 03:06:50;;;;;;;26.33;25.23;;;22.10;43.10;;;;;;5091478;28;20439;-44
2022/03/16 03:09:17;;;;;;;26.23;25.13;;;22.10;43.00;;;;;;5091231;28;20442;-47
2022/03/16 03:11:43;;;;;;;26.30;25.10;;;22.10;43.10;;;;;;5091346;28;20816;-43
2022/03/16 03:14:10;;;;;;;27.60;26.40;;;22.10;43.10;;;;;;5091263;28;20820;-44
2022/03/16 03:16:38;;;;;;;27.37;26.17;;;22.10;43.10;;;;;;5091055;28;20435;-48
2022/03/16 03:19:05;;;;;;;26.17;25.07;;;22.10;43.10;;;;;;5091200;28;20454;-49
2022/03/16 03:21:32;;;;;;;26.93;25.83;;;22.00;43.00;;;;;;5091305;28;20505;-43
2022/03/16 03:23:58;;;;;;;26.10;24.97;;;22.00;43.10;;;;;;5091319;28;20451;-44
2022/03/16 03:26:25;;;;;;;26.10;25.00;;;22.00;43.10;;;;;;5091086;28;20521;-47
2022/03/16 03:28:52;;;;;;;26.10;25.00;;;22.00;43.10;;;;;;5090786;28;20451;-43
2022/03/16 03:31:19;;;;;;;25.50;24.50;;;22.00;43.10;;;;;;5091185;28;20825;-43
2022/03/16 03:33:47;;;;;;;25.23;24.20;;;22.00;43.10;;;;;;5091243;28;20933;-46
2022/03/16 03:36:13;;;;;;;24.90;23.90;;;22.00;43.10;;;;;;5091181;28;20448;-46
2022/03/16 03:38:40;;;;;;;25.17;24.07;;;22.10;43.10;;;;;;5090744;28;20443;-44
2022/03/16 03:41:07;;;;;;;27.53;26.33;;;22.20;42.90;;;;;;5091000;28;20855;-44
2022/03/16 03:43:33;;;;;;;25.80;24.73;;;22.20;42.80;;;;;;5091148;28;20450;-48
2022/03/16 03:46:00;;;;;;;26.27;25.17;;;22.20;42.70;;;;;;5094474;28;20442;-44
2022/03/16 03:48:27;;;;;;;27.63;26.37;;;22.20;42.60;;;;;;5094347;28;20968;-44
2022/03/16 03:50:55;;;;;;;27.40;26.30;;;22.10;42.60;;;;;;5094496;28;20815;-48
2022/03/16 03:53:22;;;;;;;25.90;24.90;;;22.10;42.80;;;;;;5094644;28;20450;-50
2022/03/16 03:55:49;;;;;;;25.93;24.93;;;22.10;42.90;;;;;;5094658;28;20453;-44
2022/03/16 03:58:16;;;;;;;26.37;25.27;;;22.00;42.90;;;;;;5094033;28;20451;-50
2022/03/16 04:00:43;;;;;;;25.80;24.70;;;22.00;42.90;;;;;;5094231;28;20511;-44
2022/03/16 04:03:09;;;;;;;26.23;25.13;;;22.00;43.00;;;;;;5094523;28;20454;-44
2022/03/16 04:05:36;;;;;;;26.60;25.50;;;22.00;43.00;;;;;;5094263;28;20439;-49
2022/03/16 04:08:05;;;;;;;25.13;24.03;;;21.90;43.00;;;;;;5093862;28;20449;-44
2022/03/16 04:10:31;;;;;;;27.40;26.20;;;21.90;43.10;;;;;;5094265;28;20439;-44
2022/03/16 04:12:58;;;;;;;28.03;26.93;;;22.00;43.10;;;;;;5094173;28;20450;-51
2022/03/16 04:15:25;;;;;;;28.17;27.07;;;22.00;42.90;;;;;;5094368;28;20450;-44
2022/03/16 04:17:52;;;;;;;27.30;26.10;;;22.00;42.90;;;;;;5093761;28;20439;-44
2022/03/16 04:20:18;;;;;;;25.87;24.77;;;22.00;42.90;;;;;;5093781;28;20481;-50
2022/03/16 04:22:45;;;;;;;26.10;25.00;;;22.00;42.90;;;;;;5094142;28;20802;-44
2022/03/16 04:25:13;;;;;;;26.60;25.57;;;22.10;42.80;;;;;;5094141;28;20442;-44
2022/03/16 04:27:40;;;;;;;25.30;24.30;;;22.10;42.80;;;;;;5093487;28;20539;-44
2022/03/16 04:30:08;;;;;;;26.23;25.20;;;22.20;42.80;;;;;;5093949;28;20442;-50
2022/03/16 04:32:34;;;;;;;26.33;25.30;;;22.30;42.60;;;;;;5093880;28;20841;-44
2022/03/16 04:35:01;;;;;;;26.57;25.57;;;22.30;42.60;;;;;;5093809;28;20447;-44
2022/03/16 04:37:28;;;;;;;26.97;25.87;;;22.40;42.60;;;;;;5093553;28;20451;-44
2022/03/16 04:39:55;;;;;;;25.37;24.37;;;22.50;42.40;;;;;;5093634;28;20443;-50
2022/03/16 04:42:23;;;;;;;26.73;25.63;;;22.50;42.30;;;;;;5093624;28;20482;-45
2022/03/16 04:44:49;;;;;;;25.77;24.77;;;22.60;42.30;;;;;;5093764;28;20451;-44
2022/03/16 04:47:16;;;;;;;25.93;24.93;;;22.50;42.20;;;;;;5093112;28;20455;-43
2022/03/16 04:49:43;;;;;;;26.50;25.40;;;22.50;42.20;;;;;;5093638;28;20447;-44
2022/03/16 04:52:10;;;;;;;26.87;25.77;;;22.40;42.30;;;;;;5093538;28;20863;-44
2022/03/16 04:54:36;;;;;;;27.20;26.10;;;22.40;42.40;;;;;;5093463;28;20449;-44
2022/03/16 04:57:03;;;;;;;27.03;26.03;;;22.40;42.40;;;;;;5093270;28;20816;-44
2022/03/16 04:59:31;;;;;;;27.27;26.10;;;22.30;42.40;;;;;;5093332;28;20447;-46
2022/03/16 05:01:58;;;;;;;28.57;27.47;;;22.30;42.40;;;;;;5093039;28;20494;-44
2022/03/16 05:04:25;;;;;;;27.33;26.23;;;22.20;42.50;;;;;;5093187;28;20438;-44
2022/03/16 05:06:52;;;;;;;27.37;26.10;;;22.20;42.60;;;;;;5092897;28;20813;-48
2022/03/16 05:09:18;;;;;;;27.33;26.23;;;22.20;42.50;;;;;;5092854;28;20458;-43
2022/03/16 05:11:45;;;;;;;28.93;27.63;;;22.10;42.60;;;;;;5092915;28;20949;-43
2022/03/16 05:14:12;;;;;;;29.47;28.17;;;22.10;42.70;;;;;;5092908;28;20933;-50
2022/03/16 05:16:40;;;;;;;28.07;26.87;;;22.00;42.70;;;;;;5092710;28;20443;-44
2022/03/16 05:19:07;;;;;;;27.03;25.83;;;22.00;42.80;;;;;;5091810;28;20817;-44
2022/03/16 05:21:34;;;;;;;28.87;27.67;;;21.90;42.80;;;;;;5092580;28;20497;-44
2022/03/16 05:24:00;;;;;;;26.33;25.23;;;21.90;43.00;;;;;;5092800;28;20453;-44
2022/03/16 05:26:27;;;;;;;27.60;26.50;;;21.80;43.10;;;;;;5092535;28;20957;-44
2022/03/16 05:28:54;;;;;;;28.00;26.90;;;21.80;43.20;;;;;;5092571;28;20447;-44
2022/03/16 05:31:21;;;;;;;27.93;26.73;;;21.80;43.30;;;;;;5092635;28;20509;-44
2022/03/16 05:33:49;;;;;;;28.23;27.10;;;21.80;43.30;;;;;;5092676;28;20933;-43
2022/03/16 05:36:17;;;;;;;26.50;25.50;;;21.80;43.30;;;;;;5092395;28;20447;-50
2022/03/16 05:38:44;;;;;;;27.00;25.90;;;21.90;43.20;;;;;;5092320;28;20447;-44
2022/03/16 05:41:14;;;;;;;25.77;24.77;;;21.80;43.20;;;;;;5092365;28;20482;-44
2022/03/16 05:43:41;;;;;;;27.83;26.63;;;21.90;43.20;;;;;;5092532;28;20812;-46
2022/03/16 05:46:08;;;;;;;28.50;27.20;;;22.00;43.20;;;;;;5092433;28;20453;-44
2022/03/16 05:48:35;;;;;;;28.33;26.73;;;22.00;43.20;;;;;;5091643;28;20454;-49
2022/03/16 05:51:03;;;;;;;30.03;28.50;;;22.00;43.60;;;;;;5092242;28;20462;-44
2022/03/16 05:53:30;;;;;;;33.10;31.30;;;22.10;44.20;;;;;;5091547;28;20446;-48
2022/03/16 05:55:56;;;;;;;30.90;28.53;;;22.10;45.30;;;;;;5091883;28;20446;-44
2022/03/16 05:58:23;;;;;;;30.70;29.13;;;22.10;46.50;;;;;;5091573;28;20443;-50
2022/03/16 06:00:50;;;;;;;30.87;29.07;;;22.20;47.90;;;;;;5091776;28;20486;-45
2022/03/16 06:03:16;;;;;;;30.70;29.00;;;22.20;47.40;;;;;;5092022;28;20450;-44
2022/03/16 06:05:43;;;;;;;29.37;27.77;;;22.30;46.60;;;;;;5092018;28;20439;-51
2022/03/16 06:08:11;;;;;;;30.00;28.43;;;22.40;46.10;;;;;;5091456;28;20828;-46
2022/03/16 06:10:39;;;;;;;31.10;29.30;;;22.40;45.70;;;;;;5091901;28;20474;-45
2022/03/16 06:13:06;;;;;;;30.70;29.30;;;22.30;45.70;;;;;;5091968;28;20473;-48
2022/03/16 06:15:40;;;;;;;31.17;29.77;;;22.30;45.20;;;;;;5091908;28;20454;-46
2022/03/16 06:18:06;;;;;;;30.67;28.93;;;22.30;45.10;;;;;;5091821;28;20442;-45
2022/03/16 06:20:35;;;;;;;30.73;28.73;;;22.20;45.10;;;;;;5091536;28;20446;-44
2022/03/16 06:23:04;;;;;;;29.13;27.43;;;22.10;45.00;;;;;;5091844;28;20449;-44
2022/03/16 06:25:32;;;;;;;27.73;26.43;;;22.10;45.00;;;;;;5091853;28;20496;-45
2022/03/16 06:27:59;;;;;;;29.30;27.73;;;22.00;44.90;;;;;;5091582;28;20828;-45
2022/03/16 06:30:26;;;;;;;30.23;28.63;;;22.00;44.90;;;;;;5091642;28;20933;-44
2022/03/16 06:32:52;;;;;;;28.60;26.87;;;22.00;44.90;;;;;;5091592;28;20439;-44
2022/03/16 06:35:19;;;;;;;30.20;28.80;;;21.90;44.70;;;;;;5091624;28;20443;-44
2022/03/16 06:37:46;;;;;;;28.50;27.10;;;21.90;44.80;;;;;;5091346;28;20517;-49
2022/03/16 06:40:14;;;;;;;30.27;28.63;;;21.90;44.70;;;;;;5091666;28;20508;-44
2022/03/16 06:42:51;;;;;;;30.00;28.40;;;21.90;44.70;;;;;;5091474;28;20848;-44
2022/03/16 06:45:18;;;;;;;30.37;28.33;;;21.90;44.60;;;;;;5091524;28;20438;-44
2022/03/16 06:47:45;;;;;;;28.23;26.73;;;21.80;44.50;;;;;;5091359;28;20454;-48
2022/03/16 06:50:12;;;;;;;29.03;27.73;;;21.80;44.60;;;;;;5091581;28;20438;-44
2022/03/16 06:52:39;;;;;;;28.27;26.97;;;21.70;44.60;;;;;;5091467;28;20459;-52
2022/03/16 06:55:07;;;;;;;29.30;27.90;;;21.70;44.60;;;;;;5091528;28;20450;-44
2022/03/16 06:57:34;;;;;;;28.97;27.43;;;21.60;44.50;;;;;;5091408;28;20952;-45
2022/03/16 07:00:03;;;;;;;29.17;27.63;;;21.60;44.50;;;;;;5091293;28;20957;-49
2022/03/16 07:02:30;;;;;;;27.40;26.10;;;21.60;44.50;;;;;;5091258;28;20513;-44
2022/03/16 07:04:58;;;;;;;28.57;27.23;;;21.60;44.50;;;;;;5091347;28;20442;-49
2022/03/16 07:07:26;;;;;;;28.77;27.27;;;21.60;44.50;;;;;;5091275;28;20795;-44
2022/03/16 07:09:53;;;;;;;27.80;26.60;;;21.50;44.40;;;;;;5091424;28;20484;-50
2022/03/16 07:12:20;;;;;;;28.77;27.40;;;21.50;44.50;;;;;;5091265;28;20462;-45
2022/03/16 07:14:47;;;;;;;29.83;28.33;;;21.40;44.40;;;;;;5091357;28;20443;-45
2022/03/16 07:17:15;;;;;;;29.70;28.30;;;21.40;44.40;;;;;;5091282;28;20454;-49
2022/03/16 07:19:42;;;;;;;25.73;24.63;;;21.40;44.40;;;;;;5092730;28;20548;-47
2022/03/16 07:22:08;;;;;;;25.97;24.47;;;21.40;44.40;;;;;;5094968;28;20482;-44
2022/03/16 07:24:35;;;;;;;26.63;25.33;;;21.30;44.30;;;;;;5095198;28;20458;-44
2022/03/16 07:27:03;;;;;;;26.93;25.63;;;21.30;44.30;;;;;;5095096;28;20443;-45
2022/03/16 07:29:30;;;;;;;29.30;27.83;;;21.30;44.30;;;;;;5094792;28;20539;-44
2022/03/16 07:31:57;;;;;;;26.90;25.53;;;21.30;44.30;;;;;;5094906;28;20492;-44
2022/03/16 07:34:26;;;;;;;26.47;25.10;;;21.30;44.30;;;;;;5095122;28;20814;-47
2022/03/16 07:36:53;;;;;;;26.70;25.40;;;21.30;44.30;;;;;;5094975;28;20442;-44
2022/03/16 07:39:20;;;;;;;29.57;28.27;;;21.20;44.30;;;;;;5094684;28;20446;-50
2022/03/16 07:41:47;;;;;;;26.20;25.00;;;21.20;44.30;;;;;;5094650;28;20485;-45
2022/03/16 07:44:13;;;;;;;28.17;26.97;;;21.10;44.20;;;;;;5094725;28;20450;-45
2022/03/16 07:46:40;;;;;;;28.60;27.40;;;21.10;44.30;;;;;;5094685;28;20442;-48
2022/03/16 07:49:07;;;;;;;27.80;26.60;;;21.10;44.30;;;;;;5094490;28;20807;-46
2022/03/16 07:51:35;;;;;;;29.53;27.90;;;21.00;44.30;;;;;;5094732;28;20454;-45
2022/03/16 07:54:02;;;;;;;27.63;26.47;;;21.00;44.40;;;;;;5094509;28;20442;-45
2022/03/16 07:56:28;;;;;;;27.43;26.23;;;21.00;44.40;;;;;;5094561;28;20446;-47
2022/03/16 07:58:58;;;;;;;27.40;26.10;;;20.90;44.40;;;;;;5094263;28;20803;-45
2022/03/16 08:01:25;;;;;;;29.30;27.90;;;20.90;44.50;;;;;;5094148;28;20516;-48
2022/03/16 08:03:52;;;;;;;27.17;25.97;;;20.80;44.50;;;;;;5094365;28;20450;-46
2022/03/16 08:06:19;;;;;;;27.90;26.73;;;20.80;44.50;;;;;;5094339;28;20438;-49
2022/03/16 08:08:47;;;;;;;27.93;26.67;;;20.80;44.60;;;;;;5094085;28;20445;-46
2022/03/16 08:11:13;;;;;;;26.30;25.20;;;20.70;44.60;;;;;;5094222;28;20826;-47
2022/03/16 08:13:40;;;;;;;26.10;24.70;;;20.70;44.60;;;;;;5094280;28;20454;-45
2022/03/16 08:16:07;;;;;;;29.07;27.57;;;20.70;44.70;;;;;;5094175;28;20454;-48
2022/03/16 08:18:36;;;;;;;26.03;24.93;;;20.60;44.70;;;;;;5093908;28;20829;-47
2022/03/16 08:21:03;;;;;;;27.70;26.67;;;20.60;44.80;;;;;;5094048;28;20830;-45
2022/03/16 08:23:30;;;;;;;26.57;25.20;;;20.50;44.80;;;;;;5094143;28;20565;-45
2022/03/16 08:25:59;;;;;;;27.47;26.07;;;20.40;44.80;;;;;;5093903;28;20449;-47
2022/03/16 08:28:26;;;;;;;25.83;24.73;;;20.40;45.00;;;;;;5093729;28;20539;-47
2022/03/16 08:30:53;;;;;;;26.90;25.80;;;20.30;45.10;;;;;;5093548;28;20973;-45
2022/03/16 08:33:20;;;;;;;27.17;25.97;;;20.30;45.20;;;;;;5093914;28;20478;-44
2022/03/16 08:35:47;;;;;;;27.27;26.07;;;20.30;45.20;;;;;;5093835;28;20434;-45
2022/03/16 08:38:13;;;;;;;28.53;27.27;;;20.30;45.20;;;;;;5093538;28;20442;-49
2022/03/16 08:40:41;;;;;;;28.03;26.83;;;20.30;45.20;;;;;;5093820;28;20824;-45
2022/03/16 08:43:10;;;;;;;27.40;26.30;;;20.30;45.10;;;;;;5093622;28;21011;-44
2022/03/16 08:45:39;;;;;;;27.23;25.90;;;20.20;45.00;;;;;;5093648;28;20443;-44
2022/03/16 08:48:06;;;;;;;26.40;25.20;;;20.20;45.00;;;;;;5093506;28;20449;-50
2022/03/16 08:50:33;;;;;;;28.90;27.50;;;20.20;45.00;;;;;;5093466;28;20450;-44
2022/03/16 08:52:59;;;;;;;27.43;26.23;;;20.20;45.00;;;;;;5093612;28;20439;-45
2022/03/16 08:55:26;;;;;;;27.90;26.70;;;20.20;45.00;;;;;;5093459;28;20451;-46
2022/03/16 08:57:53;;;;;;;27.50;26.40;;;20.20;45.00;;;;;;5093220;28;20957;-48
2022/03/16 09:00:21;;;;;;;26.50;25.40;;;20.20;45.00;;;;;;5093295;28;20620;-44
2022/03/16 09:02:48;;;;;;;28.23;27.10;;;20.10;45.00;;;;;;5117868;22;20861;-48
2022/03/16 09:05:17;;;;;;;25.90;24.80;;;20.10;45.00;;;;;;5093300;28;20430;-48
2022/03/16 09:07:44;;;;;;;27.20;26.10;;;20.10;45.00;;;;;;5093113;28;20447;-48
2022/03/16 09:10:11;;;;;;;27.73;26.43;;;20.00;45.00;;;;;;5093242;28;20813;-49
2022/03/16 09:12:39;;;;;;;27.23;26.03;;;20.00;45.20;;;;;;5092990;28;20520;-48
2022/03/16 09:15:06;;;;;;;26.00;24.90;;;20.00;45.20;;;;;;5093189;28;20524;-48
2022/03/16 09:17:34;;;;;;;27.93;26.83;;;20.10;45.20;;;;;;5093010;28;20443;-48
2022/03/16 09:20:02;;;;;;;27.33;26.23;;;20.20;45.10;;;;;;5092895;28;20439;-48
2022/03/16 09:22:29;;;;;;;25.93;24.83;;;20.30;45.00;;;;;;5093057;28;20517;-49
2022/03/16 09:24:56;;;;;;;26.93;25.83;;;20.30;44.80;;;;;;5092902;28;20933;-48
2022/03/16 09:27:23;;;;;;;27.07;25.87;;;20.40;44.70;;;;;;5092623;28;20508;-48
2022/03/16 09:29:50;;;;;;;27.27;26.13;;;20.40;44.60;;;;;;5092777;28;20805;-48
2022/03/16 09:32:18;;;;;;;25.90;24.50;;;20.40;44.60;;;;;;5092649;28;20973;-48
2022/03/16 09:34:46;;;;;;;25.97;24.87;;;20.50;44.50;;;;;;5092637;28;20956;-49
2022/03/16 09:37:13;;;;;;;25.17;24.17;;;20.50;44.40;;;;;;5092683;28;20438;-49
2022/03/16 09:39:40;;;;;;;26.43;25.33;;;20.60;44.40;;;;;;5092514;28;20447;-49
2022/03/16 09:42:09;;;;;;;27.10;26.00;;;20.50;44.20;;;;;;5091813;28;20841;-49
2022/03/16 09:44:36;;;;;;;26.53;25.43;;;20.50;44.10;;;;;;5092523;28;20519;-49
2022/03/16 09:47:04;;;;;;;26.70;25.70;;;20.60;44.10;;;;;;5092416;28;20794;-51
2022/03/16 09:49:31;;;;;;;27.20;26.10;;;20.50;44.00;;;;;;5092335;28;20442;-52
2022/03/16 09:52:01;;;;;;;27.23;26.23;;;20.60;44.00;;;;;;5092351;28;20478;-49
2022/03/16 09:54:28;;;;;;;25.00;24.00;;;20.60;44.00;;;;;;5092649;28;20450;-49
2022/03/16 09:56:54;;;;;;;24.70;23.60;;;20.60;43.90;;;;;;5092416;28;20443;-48
2022/03/16 09:59:22;;;;;;;26.03;24.93;;;20.60;43.90;;;;;;5092061;28;20842;-48
2022/03/16 10:01:57;;;;;;;24.60;23.60;;;20.60;43.80;;;;;;5091972;28;20484;-48
2022/03/16 10:04:29;;;;;;;25.80;24.80;;;20.60;43.80;;;;;;5092283;28;20457;-49
2022/03/16 10:06:56;;;;;;;26.30;25.20;;;20.60;43.70;;;;;;5092212;28;20443;-48
2022/03/16 10:15:04;;;;;;;26.10;25.00;;;20.60;43.70;;;;;;5092211;28;21011;-49
2022/03/16 10:17:46;;;;;;;25.53;24.53;;;20.60;43.60;;;;;;5091858;28;20442;-48
2022/03/16 10:20:28;;;;;;;25.80;24.70;;;20.60;43.60;;;;;;5091977;28;20442;-48
2022/03/16 10:22:57;;;;;;;27.03;25.93;;;20.60;43.70;;;;;;5091785;28;20583;-48
2022/03/16 10:25:26;;;;;;;25.47;24.47;;;20.60;43.60;;;;;;5091944;28;20825;-48
2022/03/16 10:28:04;;;;;;;27.33;26.23;;;20.60;43.60;;;;;;5091701;28;20446;-49
2022/03/16 10:30:31;;;;;;;25.17;24.17;;;20.60;43.60;;;;;;5091814;28;20438;-48
2022/03/16 10:32:58;;;;;;;25.93;24.83;;;20.60;43.50;;;;;;5091778;28;20466;-48
2022/03/16 10:35:25;;;;;;;25.37;24.30;;;20.60;43.60;;;;;;5091680;28;20464;-49
2022/03/16 10:37:52;;;;;;;25.70;24.70;;;20.60;43.50;;;;;;5091555;28;20516;-50
2022/03/16 10:40:20;;;;;;;25.60;24.60;;;20.60;43.50;;;;;;5091647;28;20446;-48
2022/03/16 10:48:19;;;;;;;25.97;24.80;;;20.70;43.50;;;;;;5091506;28;21038;-48
2022/03/16 10:50:48;;;;;;;26.80;25.80;;;20.70;43.40;;;;;;5091477;28;20508;-48
2022/03/16 10:53:17;;;;;;;27.70;26.60;;;20.70;43.50;;;;;;5092555;28;20799;-48
2022/03/16 10:55:45;;;;;;;27.20;26.10;;;20.70;43.80;;;;;;5095512;28;20446;-48
2022/03/16 10:58:13;;;;;;;26.60;25.50;;;20.70;44.30;;;;;;5095590;28;20447;-48
2022/03/16 11:00:41;;;;;;;27.50;26.40;;;20.70;44.60;;;;;;5095605;28;20465;-48
2022/03/16 11:03:10;;;;;;;27.50;26.40;;;20.80;44.80;;;;;;5095658;28;20477;-49
2022/03/16 11:05:38;;;;;;;26.83;25.73;;;20.80;44.80;;;;;;5095343;28;20532;-51
2022/03/16 11:08:07;;;;;;;27.30;26.20;;;20.90;45.00;;;;;;5095338;28;20449;-48
2022/03/16 11:10:36;;;;;;;27.00;25.90;;;21.00;45.00;;;;;;5095444;28;20454;-48
2022/03/16 11:15:51;;;;;;;28.07;26.97;;;21.20;44.90;;;;;;5095311;28;20446;-49
2022/03/16 11:18:19;;;;;;;27.70;26.60;;;21.30;45.30;;;;;;5095059;28;20447;-48
2022/03/16 11:20:48;;;;;;;28.17;26.90;;;21.40;44.60;;;;;;5095228;28;20507;-50
2022/03/16 11:26:24;;;;;;;25.70;24.60;;;21.60;44.30;;;;;;5095339;28;20414;-48
2022/03/16 11:29:02;;;;;;;26.30;25.20;;;21.80;44.10;;;;;;5095148;28;20450;-49
2022/03/16 11:31:34;;;;;;;25.87;24.77;;;22.00;43.70;;;;;;5095098;28;20469;-49
2022/03/16 11:34:10;;;;;;;26.83;25.73;;;22.20;43.30;;;;;;5095117;28;20434;-51
2022/03/16 11:36:40;;;;;;;27.07;25.87;;;22.40;42.90;;;;;;5095006;28;20445;-49
2022/03/16 11:39:16;;;;;;;27.13;26.13;;;22.60;42.50;;;;;;5094788;28;20438;-50
2022/03/16 11:41:49;;;;;;;29.50;28.30;;;22.80;42.10;;;;;;5094849;28;20462;-51
2022/03/16 11:44:29;;;;;;;28.43;27.33;;;23.00;41.70;;;;;;5094787;28;20474;-50
2022/03/16 11:47:34;;;;;;;27.50;26.40;;;23.40;41.30;;;;;;5094724;28;20449;-50
2022/03/16 11:50:08;;;;;;;28.30;27.13;;;24.10;40.50;;;;;;5094698;28;20990;-49
2022/03/16 11:52:58;;;;;;;28.77;27.60;;;24.50;39.70;;;;;;5094615;28;20481;-51
2022/03/16 11:55:58;;;;;;;27.43;26.30;;;25.70;38.50;;;;;;5094512;28;20510;-48
2022/03/16 11:58:28;;;;;;;27.43;26.33;;;26.10;36.90;;;;;;5091996;28;20434;-49
2022/03/16 12:01:23;;;;;;;29.17;27.97;;;26.60;36.50;;;;;;5091929;28;20466;-50
2022/03/16 12:04:02;;;;;;;28.03;26.93;;;27.30;35.40;;;;;;5093676;28;20893;-49
2022/03/16 12:06:53;;;;;;;28.47;27.33;;;27.40;34.60;;;;;;5093708;28;20442;-50
2022/03/16 12:09:30;;;;;;;27.37;26.27;;;26.90;34.70;;;;;;5094131;28;20447;-48
2022/03/16 12:15:05;;;;;;;29.77;28.57;;;27.10;35.40;;;;;;5094411;28;20426;-48
2022/03/16 12:17:32;;;;;;;28.60;27.50;;;27.70;34.20;;;;;;5094016;28;20438;-48
2022/03/16 12:20:16;;;;;;;27.50;26.40;;;28.10;33.50;;;;;;5094193;28;20506;-48
2022/03/16 12:22:45;;;;;;;27.60;26.50;;;28.20;33.10;;;;;;5093811;28;20562;-48
2022/03/16 12:25:30;;;;;;;28.30;27.20;;;28.40;32.90;;;;;;5094118;28;20492;-49
2022/03/16 12:30:46;;;;;;;27.80;26.70;;;28.90;32.10;;;;;;5094038;28;20410;-48
2022/03/16 12:33:19;;;;;;;28.47;27.37;;;29.00;31.90;;;;;;5093969;28;20440;-49
2022/03/16 12:35:48;;;;;;;26.00;25.00;;;29.00;31.70;;;;;;5093860;28;20454;-48
2022/03/16 12:38:15;;;;;;;26.67;25.67;;;29.00;31.70;;;;;;5093776;28;20442;-50
2022/03/16 12:42:31;;;;;;;26.37;25.37;;;29.10;31.60;;;;;;5093615;28;20469;-49
2022/03/16 12:43:30;;;;;;;26.80;25.80;;;29.30;31.40;;;;;;5093578;28;20893;-48
2022/03/16 12:46:03;;;;;;;27.87;26.77;;;29.50;31.10;;;;;;5093898;28;20446;-54
2022/03/16 12:48:33;;;;;;;28.50;27.40;;;29.50;30.90;;;;;;5093428;28;20438;-53
2022/03/16 12:51:02;;;;;;;25.70;24.70;;;29.60;30.80;;;;;;5093659;28;21154;-49
2022/03/16 12:53:44;;;;;;;27.63;26.63;;;29.50;30.70;;;;;;5093626;28;20500;-54
2022/03/16 12:56:12;;;;;;;28.10;26.90;;;29.50;30.70;;;;;;5093477;28;20447;-52
2022/03/16 12:58:39;;;;;;;29.27;28.13;;;29.50;30.70;;;;;;5093129;28;20822;-49